Wind From: 22-02-2020 09:00 Until: 18:00 warning for: Wind Level: Yellow info button
Snow/Ice From: 20-02-2020 08:00 Until: 23-02-2020 07:00 warning for: Snow/Ice Level: Yellow info button


Varsler for Snø/Is more information rain snow radar



Nære METAR værraporter

   
ENGM - Oslo
Oppdatert: 22-02-2020 09:50
Regn, Overskyet  
Regn, Overskyet  
   Vind: Sør 8.7 m/s
Vind: Sør 8.7 m/s
Temperatur: 6°C
Wind Chill: 1°C
Duggpunkt: 5°C
Luftfuktighet: 93%
Barometer: 971 hPa
Skyer: Overskyet
Sikt: 6 km
Detaljer skyer: Delvis skyet 335.3 m,
Overskyet 548.6 m
ENGM 220850Z 19017KT 6000 RA SCT011 OVC018 06/05 Q0971 TEMPO 19017G27KT 4000 SHRA BKN012
ENTO - Sandefjord
Oppdatert: 22-02-2020 09:50
Delvis skyet  
Delvis skyet  
   Vind: SV 12.3 m/s<br />Gust to 12.3 m/s
Vind: SV 12.3 m/s
Gust to 12.3 m/s
Temperatur: 8°C
Wind Chill: 3°C
Duggpunkt: 4°C
Luftfuktighet: 76%
Barometer: 978 hPa
Skyer: Delvis skyet
Sikt: More than 10 km
Detaljer skyer: Delvis skyet 304.8 m,
Delvis skyet 914.4 m
ENTO 220850Z 23024G38KT 9999 SCT010 SCT030 08/04 Q0978 NOSIG
ENNO - Notodden
Oppdatert: 21-02-2020 14:50
Oppdatert, se klokkeslett
Lett Regn, For det meste Overskyet  
Lett Regn, For det meste Overskyet  
   Vind: varierende Stille
Vind: varierende Stille
Barometer: 995 hPa
Skyer: For det meste Overskyet
Sikt: More than 10 km
Detaljer skyer: For det meste Overskyet 1066.8 m,
For det meste Overskyet 1524 m
ENNO 211350Z /////KT 9999 -RA BKN035 BKN050 /////// Q0995
ENRY - Rygge
Oppdatert: 22-02-2020 09:50
Delvis skyet  
Delvis skyet  
   Vind: SSV 12.9 m/s<br />Gust to 12.9 m/s
Vind: SSV 12.9 m/s
Gust to 12.9 m/s
Temperatur: 8°C
Wind Chill: 3°C
Duggpunkt: 5°C
Luftfuktighet: 82%
Barometer: 976 hPa
Skyer: Delvis skyet
Sikt: 8 km
Detaljer skyer: Noen skyer 304.8 m,
Delvis skyet 548.6 m
ENRY 220850Z 21025G37KT 8000 FEW010 SCT018 08/05 Q0976
ENSN - Skien
Oppdatert: 09-11-2015 09:50
Oppdatert, se klokkeslett
Klart  
Klart  
   Vind: SSV 5.1 m/s<br />Gust to 5.1 m/s
Vind: SSV 5.1 m/s
Gust to 5.1 m/s
Temperatur: 7°C
Wind Chill: 4°C
Duggpunkt: 3°C
Luftfuktighet: 76%
Barometer: 1000 hPa
Sikt: More than 10 km
Detaljer skyer: Klart
ENSN 090850Z 20010G22KT 150V240 CAVOK 07/03 Q1000
ENFG - Fagernes
Oppdatert: 22-04-2018 10:50
Oppdatert, se klokkeslett
Klart  
Klart  
   Vind: Sør 3.6 m/s
Vind: Sør 3.6 m/s
Temperatur: 6°C
Wind Chill: 3°C
Duggpunkt: -3°C
Luftfuktighet: 53%
Barometer: 1014 hPa
Sikt: More than 10 km
Detaljer skyer: Klart
ENFG 220850Z 19007KT CAVOK 06/M03 Q1014

Script utviklet av  Saratoga-weather.org Tilpasset for tamplaten av  Weerstation Leuven

Du finner min vær info også på:

European Weather Network

European Weather Network